Time;durP1;ratioP1;P1;durP2;ratioP2;P2;SDS_P1;SDS_P2;PMS_P1;PMS_P2;Temp;Humidity;BMP_temperature;BMP_pressure;BME280_temperature;BME280_humidity;BME280_pressure;Samples;Min_cycle;Max_cycle;Signal;HPM_P1;HPM_P2
2021/05/11 00:02:16;;;;;;;2.53;1.87;;;11.20;99.90;;;;;;5007692;28;20237;-88
2021/05/11 00:04:41;;;;;;;3.10;2.10;;;11.20;99.90;;;;;;5008649;28;20257;-90
2021/05/11 00:07:07;;;;;;;4.73;2.60;;;11.20;99.90;;;;;;5009023;28;20233;-89
2021/05/11 00:09:33;;;;;;;1.87;1.77;;;11.20;99.90;;;;;;5025022;28;20186;-90
2021/05/11 00:11:59;;;;;;;3.67;2.10;;;11.10;99.90;;;;;;5008149;28;20243;-88
2021/05/11 00:14:25;;;;;;;4.70;2.30;;;11.00;99.90;;;;;;5024398;28;20313;-91
2021/05/11 00:16:51;;;;;;;4.13;2.53;;;10.90;99.90;;;;;;5008095;28;20294;-89
2021/05/11 00:19:17;;;;;;;2.87;1.83;;;10.90;99.90;;;;;;5024528;28;20625;-89
2021/05/11 00:21:43;;;;;;;3.60;2.20;;;10.90;99.90;;;;;;4991894;28;20235;-88
2021/05/11 00:24:09;;;;;;;25.57;2.73;;;10.90;99.90;;;;;;5010274;28;20193;-90
2021/05/11 00:26:38;;;;;;;3.77;2.27;;;11.00;99.90;;;;;;5008048;28;20321;-89
2021/05/11 00:29:04;;;;;;;3.53;2.13;;;11.00;99.90;;;;;;5009392;28;20234;-89
2021/05/11 00:31:31;;;;;;;6.10;2.40;;;11.00;99.90;;;;;;5024149;28;20299;-91
2021/05/11 00:33:57;;;;;;;8.13;2.33;;;11.00;99.90;;;;;;5042095;28;20182;-89
2021/05/11 00:36:24;;;;;;;7.97;2.70;;;11.00;99.90;;;;;;5009325;28;20190;-89
2021/05/11 00:38:50;;;;;;;3.30;2.17;;;11.00;99.90;;;;;;5024460;28;20222;-90
2021/05/11 00:41:15;;;;;;;12.43;2.23;;;11.00;99.90;;;;;;5025131;28;21295;-89
2021/05/11 00:43:45;;;;;;;4.30;2.60;;;11.00;99.90;;;;;;5007760;28;20233;-90
2021/05/11 00:46:13;;;;;;;1.90;1.60;;;11.10;99.90;;;;;;5010030;28;20221;-90
2021/05/11 00:48:39;;;;;;;3.70;2.30;;;11.10;99.90;;;;;;5030063;28;20236;-89
2021/05/11 00:51:06;;;;;;;6.73;2.30;;;11.10;99.90;;;;;;5012721;28;21335;-89
2021/05/11 00:53:33;;;;;;;3.03;2.40;;;11.20;99.90;;;;;;5012614;28;20213;-89
2021/05/11 00:55:59;;;;;;;4.17;3.17;;;11.20;99.90;;;;;;5028096;28;20225;-90
2021/05/11 00:58:25;;;;;;;3.53;1.80;;;11.20;99.90;;;;;;4995159;28;20298;-89
2021/05/11 01:00:51;;;;;;;7.50;2.53;;;11.30;99.90;;;;;;5027022;28;20190;-88
2021/05/11 01:03:17;;;;;;;3.73;1.80;;;11.40;99.90;;;;;;5013973;28;20277;-89
2021/05/11 01:05:43;;;;;;;5.23;2.10;;;11.40;99.90;;;;;;5045287;28;20205;-89
2021/05/11 01:08:10;;;;;;;4.37;2.80;;;11.50;99.90;;;;;;5028337;28;20264;-89
2021/05/11 01:10:37;;;;;;;5.77;2.37;;;11.50;99.90;;;;;;5043737;28;20218;-91
2021/05/11 01:13:03;;;;;;;5.93;1.97;;;11.60;99.90;;;;;;5043686;28;20229;-89
2021/05/11 01:15:31;;;;;;;8.63;2.40;;;11.50;99.90;;;;;;5025065;28;20194;-90
2021/05/11 01:18:07;;;;;;;5.27;3.37;;;11.50;99.90;;;;;;5009982;28;20667;-89
2021/05/11 01:20:42;;;;;;;3.60;2.17;;;11.50;99.90;;;;;;5012505;28;20310;-89
2021/05/11 01:25:58;;;;;;;3.30;2.00;;;11.50;99.90;;;;;;5044140;28;20246;-89
2021/05/11 01:31:50;;;;;;;11.23;2.83;;;11.50;99.90;;;;;;5030891;28;20222;-90
2021/05/11 01:47:56;;;;;;;2.70;2.40;;;11.60;99.90;;;;;;5027980;28;20222;-90
2021/05/11 01:50:36;;;;;;;2.33;2.10;;;11.60;99.90;;;;;;5044625;28;20249;-88
2021/05/11 02:25:04;;;;;;;5.57;2.57;;;11.40;99.90;;;;;;5028786;28;20229;-90
2021/05/11 02:27:31;;;;;;;6.27;2.23;;;11.40;99.90;;;;;;5044712;28;20299;-90
2021/05/11 02:29:56;;;;;;;4.27;2.30;;;11.40;99.90;;;;;;5026121;28;20291;-89
2021/05/11 02:32:22;;;;;;;4.23;2.30;;;11.40;99.90;;;;;;5031944;28;21060;-88
2021/05/11 02:34:48;;;;;;;3.23;2.37;;;11.40;99.90;;;;;;5009520;28;20300;-90
2021/05/11 02:37:14;;;;;;;4.90;1.90;;;11.40;99.90;;;;;;5042621;28;20248;-89
2021/05/11 02:39:40;;;;;;;6.13;2.70;;;11.40;99.90;;;;;;5025982;28;20190;-90
2021/05/11 02:42:06;;;;;;;2.43;2.20;;;11.40;99.90;;;;;;5027172;28;20678;-92
2021/05/11 02:44:39;;;;;;;5.57;2.60;;;11.40;99.90;;;;;;5008932;28;20236;-90
2021/05/11 02:47:06;;;;;;;13.30;2.60;;;11.40;99.90;;;;;;5026007;28;20213;-93
2021/05/11 02:49:31;;;;;;;7.13;2.57;;;11.50;99.90;;;;;;5025876;28;20666;-91
2021/05/11 02:51:57;;;;;;;6.70;3.17;;;11.50;99.90;;;;;;5025895;28;20196;-92
2021/05/11 02:54:23;;;;;;;3.03;1.97;;;11.40;99.90;;;;;;5026685;28;20205;-91
2021/05/11 02:56:49;;;;;;;5.87;2.60;;;11.40;99.90;;;;;;5008913;28;20679;-92
2021/05/11 02:59:14;;;;;;;3.87;2.80;;;11.30;99.90;;;;;;5021032;28;20232;-91
2021/05/11 03:01:40;;;;;;;4.40;3.33;;;11.40;99.90;;;;;;5011914;28;20742;-91
2021/05/11 03:04:06;;;;;;;3.53;2.60;;;11.30;99.90;;;;;;5018920;28;20249;-87
2021/05/11 03:06:31;;;;;;;3.73;1.90;;;11.30;99.90;;;;;;5009341;28;20244;-89
2021/05/11 03:08:57;;;;;;;12.40;3.43;;;11.20;99.90;;;;;;5022698;28;20697;-92
2021/05/11 03:11:23;;;;;;;4.83;1.93;;;11.30;99.90;;;;;;5023675;28;20968;-88
2021/05/11 03:13:48;;;;;;;8.13;2.33;;;11.30;99.90;;;;;;4993053;28;20226;-89
2021/05/11 03:16:16;;;;;;;3.97;1.93;;;11.30;99.90;;;;;;5042711;28;20225;-90
2021/05/11 03:18:44;;;;;;;6.10;2.70;;;11.30;99.90;;;;;;5009394;28;20213;-88
2021/05/11 03:21:10;;;;;;;4.57;3.63;;;11.30;99.90;;;;;;5036231;28;20219;-89
2021/05/11 03:23:36;;;;;;;2.27;1.67;;;11.30;99.90;;;;;;5025453;28;20218;-91
2021/05/11 03:26:01;;;;;;;7.63;2.80;;;11.30;99.90;;;;;;5008461;28;20887;-88
2021/05/11 03:28:27;;;;;;;4.23;2.73;;;11.30;99.90;;;;;;5008467;28;20222;-90
2021/05/11 03:30:53;;;;;;;2.23;1.80;;;11.40;99.90;;;;;;5007648;28;20537;-91
2021/05/11 03:33:18;;;;;;;5.27;2.43;;;11.30;99.90;;;;;;5016964;28;20216;-88
2021/05/11 03:35:44;;;;;;;2.67;2.33;;;11.20;99.90;;;;;;5007390;28;20816;-89
2021/05/11 03:38:10;;;;;;;5.70;2.03;;;11.10;99.90;;;;;;4991929;28;20238;-89
2021/05/11 03:40:37;;;;;;;4.20;2.07;;;11.10;99.90;;;;;;5041730;28;20237;-91
2021/05/11 03:43:10;;;;;;;5.83;2.13;;;11.20;99.90;;;;;;5024435;28;20256;-87
2021/05/11 03:45:41;;;;;;;2.57;1.90;;;11.20;99.90;;;;;;5008436;28;20209;-92
2021/05/11 03:48:07;;;;;;;5.37;3.00;;;11.30;99.90;;;;;;5017187;28;20233;-87
2021/05/11 03:50:33;;;;;;;2.70;2.00;;;11.40;99.90;;;;;;5040287;28;20225;-92
2021/05/11 03:53:01;;;;;;;8.00;2.03;;;11.40;99.90;;;;;;5024612;28;20228;-92
2021/05/11 03:55:26;;;;;;;2.90;2.17;;;11.40;99.90;;;;;;5024728;28;20249;-90
2021/05/11 03:57:52;;;;;;;5.93;2.23;;;11.50;99.90;;;;;;5024851;28;20694;-91
2021/05/11 04:00:18;;;;;;;2.93;2.03;;;11.50;99.90;;;;;;5010420;28;21248;-90
2021/05/11 04:02:44;;;;;;;2.27;2.00;;;11.60;99.90;;;;;;5008883;28;20595;-91
2021/05/11 04:05:12;;;;;;;3.27;1.73;;;11.70;99.90;;;;;;4992447;28;20214;-91
2021/05/11 04:07:40;;;;;;;7.40;3.33;;;11.60;99.90;;;;;;5024546;28;20228;-88
2021/05/11 04:13:35;;;;;;;5.50;1.77;;;11.70;99.90;;;;;;4998592;28;20267;-91
2021/05/11 04:18:28;;;;;;;3.73;1.90;;;11.70;99.90;;;;;;5026569;28;20227;-89
2021/05/11 04:20:54;;;;;;;3.17;2.00;;;11.70;99.90;;;;;;5029750;28;20217;-92
2021/05/11 04:23:20;;;;;;;2.13;1.93;;;11.80;99.90;;;;;;5047069;28;20727;-92
2021/05/11 04:25:46;;;;;;;2.80;2.47;;;11.80;99.90;;;;;;5030234;28;20190;-91
2021/05/11 04:28:12;;;;;;;6.83;2.03;;;11.90;99.90;;;;;;5015465;28;20230;-90
2021/05/11 04:30:38;;;;;;;4.83;2.00;;;11.90;99.90;;;;;;5014411;28;20209;-92
2021/05/11 04:33:04;;;;;;;2.60;1.93;;;12.00;99.90;;;;;;5048672;28;20256;-91
2021/05/11 04:35:30;;;;;;;5.57;2.73;;;12.00;99.90;;;;;;5031005;28;20271;-91
2021/05/11 04:37:55;;;;;;;4.37;3.07;;;12.00;99.90;;;;;;5026364;28;20579;-89
2021/05/11 04:40:21;;;;;;;1.70;1.43;;;12.00;99.90;;;;;;5031279;28;21211;-92
2021/05/11 04:42:47;;;;;;;5.57;2.50;;;11.90;99.90;;;;;;5015320;28;20217;-91
2021/05/11 04:45:19;;;;;;;2.40;1.87;;;12.00;99.90;;;;;;5048858;28;20263;-91
2021/05/11 04:47:50;;;;;;;2.70;1.40;;;12.10;99.90;;;;;;5015032;28;20244;-91
2021/05/11 04:50:24;;;;;;;8.27;2.20;;;12.20;99.90;;;;;;5030887;28;20214;-90
2021/05/11 04:52:50;;;;;;;4.37;1.77;;;12.10;99.90;;;;;;5030354;28;20765;-89
2021/05/11 04:55:18;;;;;;;2.50;1.87;;;12.20;99.90;;;;;;5032977;28;20681;-91
2021/05/11 04:57:44;;;;;;;2.93;1.90;;;12.20;99.90;;;;;;5014819;28;20222;-91
2021/05/11 05:00:11;;;;;;;6.83;2.77;;;12.30;99.90;;;;;;5030834;28;20225;-88
2021/05/11 05:02:42;;;;;;;9.47;2.20;;;12.30;99.90;;;;;;5028026;28;20217;-90
2021/05/11 05:05:08;;;;;;;5.00;2.00;;;12.30;99.90;;;;;;5039208;28;20225;-90
2021/05/11 05:07:35;;;;;;;4.80;1.73;;;12.40;99.90;;;;;;5015286;28;20964;-92
2021/05/11 05:10:02;;;;;;;4.50;2.17;;;12.40;99.90;;;;;;5030250;28;20218;-92
2021/05/11 05:12:28;;;;;;;3.03;1.60;;;12.30;99.90;;;;;;5029623;28;20214;-90
2021/05/11 05:14:53;;;;;;;4.27;1.67;;;12.30;99.90;;;;;;5030707;28;20218;-91
2021/05/11 05:17:19;;;;;;;4.53;1.70;;;12.30;99.90;;;;;;5029489;28;20248;-88
2021/05/11 05:19:45;;;;;;;4.30;2.70;;;12.40;99.90;;;;;;5013361;28;20201;-88
2021/05/11 05:22:11;;;;;;;5.43;1.60;;;12.40;99.90;;;;;;5014900;28;20197;-87
2021/05/11 05:24:45;;;;;;;2.33;1.97;;;12.40;99.90;;;;;;5008521;28;20256;-88
2021/05/11 05:27:17;;;;;;;4.60;2.27;;;12.40;99.90;;;;;;5017790;28;20243;-89
2021/05/11 05:29:43;;;;;;;4.70;2.20;;;12.40;99.90;;;;;;5024085;28;20271;-89
2021/05/11 05:32:09;;;;;;;4.97;2.27;;;12.40;99.90;;;;;;5034380;28;20222;-88
2021/05/11 05:34:35;;;;;;;2.93;2.07;;;12.40;99.90;;;;;;5022810;28;20210;-90
2021/05/11 05:37:01;;;;;;;8.80;1.90;;;12.40;99.90;;;;;;4989388;28;20304;-90
2021/05/11 05:39:35;;;;;;;10.30;2.80;;;12.50;99.90;;;;;;5022631;28;20868;-87
2021/05/11 05:42:01;;;;;;;5.47;2.33;;;12.50;99.90;;;;;;5021616;28;20217;-88
2021/05/11 05:44:27;;;;;;;4.87;2.17;;;12.60;99.90;;;;;;4987320;28;20222;-87
2021/05/11 05:46:53;;;;;;;5.03;2.10;;;12.70;99.90;;;;;;4987470;28;20193;-88
2021/05/11 05:49:19;;;;;;;7.70;2.77;;;12.70;99.90;;;;;;5006992;28;20218;-88
2021/05/11 05:51:48;;;;;;;6.90;2.77;;;12.70;99.90;;;;;;5021015;28;20214;-89
2021/05/11 05:54:14;;;;;;;4.13;2.17;;;12.80;99.90;;;;;;5021926;28;20226;-89
2021/05/11 05:56:39;;;;;;;7.47;2.90;;;12.80;99.90;;;;;;5020302;28;20772;-89
2021/05/11 05:59:05;;;;;;;10.20;3.10;;;12.80;99.90;;;;;;5029854;28;20248;-90
2021/05/11 06:01:31;;;;;;;4.53;3.13;;;12.80;99.90;;;;;;5023214;28;20186;-88
2021/05/11 06:04:11;;;;;;;6.53;3.07;;;12.90;99.90;;;;;;5021693;28;20593;-88
2021/05/11 06:06:38;;;;;;;8.47;3.30;;;13.00;99.90;;;;;;5021134;28;20221;-91
2021/05/11 06:09:12;;;;;;;4.40;3.40;;;13.00;99.90;;;;;;5023228;28;20275;-89
2021/05/11 06:14:22;;;;;;;5.13;2.97;;;13.00;99.90;;;;;;5023481;28;20221;-90
2021/05/11 06:19:48;;;;;;;5.33;2.83;;;13.10;99.90;;;;;;4970222;28;20206;-88
2021/05/11 06:22:15;;;;;;;6.07;3.20;;;13.20;99.90;;;;;;5040927;28;20194;-88
2021/05/11 06:24:42;;;;;;;6.30;3.27;;;13.20;99.90;;;;;;5020850;28;20283;-87
2021/05/11 06:27:10;;;;;;;3.93;3.27;;;13.20;99.90;;;;;;5018237;28;20238;-89
2021/05/11 06:29:38;;;;;;;4.87;3.97;;;13.20;99.90;;;;;;5024684;28;20236;-88
2021/05/11 06:32:08;;;;;;;7.33;3.53;;;13.20;99.90;;;;;;5011432;28;20933;-86
2021/05/11 06:34:35;;;;;;;7.27;3.30;;;13.30;99.90;;;;;;5025252;28;20189;-88
2021/05/11 06:37:01;;;;;;;13.57;3.93;;;13.30;99.90;;;;;;5025389;28;20244;-85
2021/05/11 06:39:27;;;;;;;9.80;4.03;;;13.40;99.90;;;;;;5009420;28;20226;-87
2021/05/11 06:41:58;;;;;;;8.83;4.33;;;13.50;99.90;;;;;;5009436;28;20218;-87
2021/05/11 06:54:38;;;;;;;8.67;3.83;;;13.80;99.90;;;;;;5027588;28;20249;-87
2021/05/11 06:57:05;;;;;;;9.37;4.43;;;13.90;99.90;;;;;;5008358;28;20222;-85
2021/05/11 06:59:31;;;;;;;6.37;4.40;;;13.90;99.90;;;;;;5025769;28;20271;-85
2021/05/11 07:01:59;;;;;;;13.37;4.70;;;13.90;99.90;;;;;;5024926;28;20189;-86
2021/05/11 07:04:25;;;;;;;13.27;6.03;;;14.00;99.90;;;;;;5010424;28;20191;-86
2021/05/11 07:06:51;;;;;;;10.90;4.83;;;14.20;99.90;;;;;;5032973;28;20271;-86
2021/05/11 07:09:29;;;;;;;11.13;5.37;;;14.40;99.90;;;;;;5025027;28;21085;-85
2021/05/11 07:14:20;;;;;;;8.87;5.50;;;14.70;99.90;;;;;;5041894;28;20217;-86
2021/05/11 07:16:46;;;;;;;8.93;5.27;;;14.90;99.90;;;;;;5031919;28;20197;-85
2021/05/11 07:19:12;;;;;;;6.70;4.40;;;15.10;99.90;;;;;;5010387;28;20275;-85
2021/05/11 07:21:37;;;;;;;9.27;5.60;;;15.10;99.90;;;;;;4990988;28;20228;-86
2021/05/11 07:24:05;;;;;;;8.33;5.07;;;15.20;99.90;;;;;;5024228;28;20588;-85
2021/05/11 07:26:31;;;;;;;9.60;5.60;;;15.20;99.90;;;;;;5022213;28;20252;-85
2021/05/11 07:29:13;;;;;;;5.67;4.27;;;15.30;99.90;;;;;;4997925;28;20201;-85
2021/05/11 07:31:39;;;;;;;8.43;3.97;;;15.40;99.90;;;;;;5041166;28;20272;-84
2021/05/11 07:34:06;;;;;;;8.27;4.17;;;15.40;99.90;;;;;;5040994;28;20218;-87
2021/05/11 07:36:33;;;;;;;8.03;4.43;;;15.70;99.90;;;;;;5030685;28;20266;-87
2021/05/11 07:38:59;;;;;;;6.73;4.13;;;16.10;99.90;;;;;;5023307;28;20328;-86
2021/05/11 07:41:25;;;;;;;5.23;3.70;;;16.30;99.90;;;;;;5024440;28;20706;-87
2021/05/11 07:43:54;;;;;;;5.23;3.43;;;16.30;99.90;;;;;;4991919;28;20190;-86
2021/05/11 08:17:37;;;;;;;7.13;4.93;;;17.20;99.90;;;;;;5018811;28;20229;-87
2021/05/11 08:27:54;;;;;;;6.63;4.63;;;16.80;99.90;;;;;;5041191;28;20348;-87
2021/05/11 08:30:21;;;;;;;5.20;3.77;;;16.90;99.90;;;;;;4993553;28;20569;-86
2021/05/11 08:32:47;;;;;;;5.77;4.33;;;16.90;99.90;;;;;;5023327;28;20221;-88
2021/05/11 08:35:12;;;;;;;5.37;3.40;;;16.90;99.90;;;;;;5023206;28;20347;-86
2021/05/11 08:37:38;;;;;;;4.73;3.37;;;16.80;99.90;;;;;;5040905;28;20213;-86
2021/05/11 08:40:05;;;;;;;4.20;3.17;;;16.90;99.90;;;;;;5006353;28;20344;-87
2021/05/11 08:42:32;;;;;;;4.43;3.50;;;17.40;99.90;;;;;;5007471;28;20214;-86
2021/05/11 08:45:12;;;;;;;5.33;3.70;;;17.20;99.90;;;;;;5039020;28;20230;-87
2021/05/11 08:47:52;;;;;;;3.23;2.70;;;16.90;99.90;;;;;;5013822;28;20228;-86
2021/05/11 08:50:35;;;;;;;3.70;3.27;;;16.90;99.90;;;;;;5002980;28;20236;-87
2021/05/11 09:27:04;;;;;;;2.90;2.03;;;18.30;99.90;;;;;;5043546;28;20238;-87
2021/05/11 10:49:29;;;;;;;2.97;1.43;;;18.80;99.90;;;;;;5044166;28;20247;-86
2021/05/11 10:52:22;;;;;;;14.57;1.43;;;18.90;99.90;;;;;;5041386;28;20345;-87
2021/05/11 10:54:52;;;;;;;1.47;1.00;;;19.10;99.90;;;;;;5041871;28;20214;-86
2021/05/11 10:57:52;;;;;;;2.33;1.70;;;18.90;99.90;;;;;;5042122;28;20213;-86
2021/05/11 11:00:46;;;;;;;1.03;0.93;;;19.10;99.90;;;;;;5042730;28;20218;-90
2021/05/11 11:03:22;;;;;;;3.17;1.67;;;19.30;99.90;;;;;;5042570;28;20206;-86
2021/05/11 11:05:56;;;;;;;2.47;1.63;;;18.70;99.90;;;;;;5024635;28;20221;-87
2021/05/11 11:08:40;;;;;;;2.83;1.83;;;18.30;99.90;;;;;;5043013;28;20236;-87
2021/05/11 11:11:12;;;;;;;1.73;1.07;;;18.60;99.90;;;;;;5024527;28;20637;-87
2021/05/11 11:13:40;;;;;;;2.13;1.40;;;18.50;99.90;;;;;;5034787;28;20190;-87
2021/05/11 11:16:07;;;;;;;4.03;1.60;;;18.00;99.90;;;;;;5041656;28;21481;-87
2021/05/11 11:18:33;;;;;;;5.73;2.20;;;18.10;99.90;;;;;;5024354;28;20222;-86
2021/05/11 11:23:54;;;;;;;4.27;1.93;;;18.10;99.90;;;;;;5042494;28;20762;-87
2021/05/11 11:26:29;;;;;;;3.07;2.33;;;18.00;99.90;;;;;;5018710;28;20225;-86
2021/05/11 11:28:59;;;;;;;3.73;2.23;;;18.50;99.90;;;;;;5045963;28;20189;-87
2021/05/11 11:31:27;;;;;;;2.20;1.73;;;18.60;99.90;;;;;;5028426;28;20209;-87
2021/05/11 11:33:53;;;;;;;4.20;2.40;;;18.50;99.90;;;;;;5039250;28;20245;-86
2021/05/11 11:36:33;;;;;;;2.37;1.90;;;18.30;99.90;;;;;;5008825;28;20218;-87
2021/05/11 11:39:00;;;;;;;4.90;2.40;;;18.40;99.90;;;;;;5023931;28;20240;-86
2021/05/11 11:41:27;;;;;;;2.60;1.93;;;18.40;99.90;;;;;;5042198;28;20222;-87
2021/05/11 11:43:54;;;;;;;4.03;2.87;;;18.50;99.90;;;;;;5024129;28;20540;-88
2021/05/11 11:46:27;;;;;;;3.77;2.80;;;18.70;99.90;;;;;;5026293;28;20194;-87
2021/05/11 11:48:59;;;;;;;4.70;2.90;;;18.40;99.90;;;;;;5023642;28;20279;-85
2021/05/11 11:51:31;;;;;;;6.27;3.13;;;18.20;99.90;;;;;;5024577;28;20291;-86
2021/05/11 11:54:25;;;;;;;4.63;3.67;;;18.30;99.90;;;;;;5024439;28;20214;-86
2021/05/11 11:59:35;;;;;;;3.17;2.87;;;18.60;99.90;;;;;;5025970;28;20241;-85
2021/05/11 12:02:04;;;;;;;3.60;2.70;;;18.50;99.90;;;;;;5023343;28;20336;-85
2021/05/11 12:04:31;;;;;;;3.90;3.17;;;18.20;99.90;;;;;;5025287;28;20195;-86
2021/05/11 12:07:04;;;;;;;4.70;3.63;;;17.90;99.90;;;;;;5023714;28;20217;-86
2021/05/11 12:09:30;;;;;;;4.10;3.10;;;18.10;99.90;;;;;;5022217;28;20858;-87
2021/05/11 12:11:59;;;;;;;3.90;2.97;;;18.10;99.90;;;;;;5007302;28;20217;-86
2021/05/11 12:14:25;;;;;;;3.60;3.13;;;18.10;99.90;;;;;;5023315;28;20576;-87
2021/05/11 12:16:51;;;;;;;4.10;3.10;;;18.20;99.90;;;;;;5006872;28;20193;-86
2021/05/11 12:19:23;;;;;;;4.17;3.73;;;18.00;99.90;;;;;;5008751;28;20214;-86
2021/05/11 12:21:49;;;;;;;5.93;3.57;;;18.00;99.90;;;;;;5024031;28;20275;-87
2021/05/11 12:24:15;;;;;;;4.53;3.47;;;18.10;99.90;;;;;;5024029;28;20585;-86
2021/05/11 12:26:42;;;;;;;4.10;3.60;;;17.90;99.90;;;;;;5007661;28;20336;-86
2021/05/11 12:29:09;;;;;;;3.00;2.43;;;18.00;99.90;;;;;;4999891;28;20229;-86
2021/05/11 12:31:45;;;;;;;7.23;3.03;;;18.00;99.90;;;;;;5041960;28;20201;-85
2021/05/11 12:34:16;;;;;;;5.23;3.67;;;17.90;99.90;;;;;;5023535;28;20883;-86
2021/05/11 12:36:47;;;;;;;4.77;2.53;;;18.10;99.90;;;;;;5022534;28;20304;-86
2021/05/11 12:39:25;;;;;;;3.30;3.00;;;18.00;99.90;;;;;;5039123;28;20241;-85
2021/05/11 12:41:51;;;;;;;5.63;3.67;;;17.90;99.90;;;;;;5023461;28;20738;-87
2021/05/11 12:44:30;;;;;;;4.33;3.17;;;17.80;99.90;;;;;;5039268;28;20206;-85
2021/05/11 12:47:02;;;;;;;4.93;3.40;;;17.80;99.90;;;;;;5022775;28;20552;-87
2021/05/11 12:49:29;;;;;;;3.13;2.63;;;17.90;99.90;;;;;;5039854;28;20321;-86
2021/05/11 12:51:56;;;;;;;3.50;2.60;;;17.70;99.90;;;;;;5006591;28;20237;-88
2021/05/11 12:54:47;;;;;;;4.33;3.50;;;17.80;99.90;;;;;;5023046;28;20221;-86
2021/05/11 12:57:51;;;;;;;3.53;2.70;;;17.90;99.90;;;;;;5042778;28;20220;-88
2021/05/11 13:00:34;;;;;;;3.40;2.50;;;17.90;99.90;;;;;;5023287;28;20255;-84
2021/05/11 13:17:07;;;;;;;4.37;3.53;;;17.60;99.90;;;;;;5011520;28;20247;-87
2021/05/11 13:27:47;;;;;;;3.47;2.80;;;17.30;99.90;;;;;;5043518;28;20233;-85
2021/05/11 13:35:31;;;;;;;3.23;2.87;;;17.00;99.90;;;;;;5026125;28;20222;-89
2021/05/11 13:37:57;;;;;;;2.03;1.83;;;17.00;99.90;;;;;;5024279;28;20213;-86
2021/05/11 13:40:23;;;;;;;1.50;1.40;;;17.00;99.90;;;;;;5008106;28;20579;-88
2021/05/11 13:42:51;;;;;;;1.60;1.50;;;16.90;99.90;;;;;;5005999;28;20213;-86
2021/05/11 13:45:17;;;;;;;1.43;1.33;;;16.80;99.90;;;;;;5005124;28;20715;-86
2021/05/11 13:47:55;;;;;;;3.93;1.50;;;17.00;99.90;;;;;;5023739;28;20253;-85
2021/05/11 13:50:23;;;;;;;1.80;1.53;;;16.90;99.90;;;;;;4994498;28;20226;-90
2021/05/11 13:52:49;;;;;;;1.80;1.53;;;17.00;99.90;;;;;;5023030;28;20190;-88
2021/05/11 13:55:23;;;;;;;2.37;2.00;;;17.00;99.90;;;;;;5031446;28;20763;-87
2021/05/11 14:03:17;;;;;;;3.50;1.90;;;17.00;99.90;;;;;;5027653;28;20225;-87
2021/05/11 14:05:43;;;;;;;3.23;2.03;;;17.00;99.90;;;;;;5025824;28;20238;-86
2021/05/11 14:08:09;;;;;;;4.03;2.57;;;17.10;99.90;;;;;;4992444;28;20674;-86
2021/05/11 14:10:35;;;;;;;4.23;2.83;;;16.90;99.90;;;;;;4994859;28;20188;-86
2021/05/11 14:13:00;;;;;;;2.87;2.43;;;16.80;99.90;;;;;;5010534;28;20241;-87
2021/05/11 14:15:28;;;;;;;4.13;2.63;;;16.50;99.90;;;;;;4993761;28;20216;-86
2021/05/11 14:17:54;;;;;;;4.10;2.67;;;16.50;99.90;;;;;;5025612;28;20234;-87
2021/05/11 14:20:19;;;;;;;4.10;3.03;;;16.50;99.90;;;;;;5026541;28;20232;-87
2021/05/11 14:22:45;;;;;;;5.47;3.10;;;16.30;99.90;;;;;;5009925;28;20186;-86
2021/05/11 14:25:11;;;;;;;3.23;2.50;;;16.10;99.90;;;;;;5026813;28;20194;-86
2021/05/11 14:27:37;;;;;;;3.13;2.83;;;16.10;99.90;;;;;;5043023;28;20236;-90
2021/05/11 14:30:04;;;;;;;3.10;2.80;;;16.20;99.90;;;;;;5009555;28;20230;-90
2021/05/11 14:32:29;;;;;;;3.13;2.40;;;16.10;99.90;;;;;;5009844;28;20225;-89
2021/05/11 14:34:55;;;;;;;4.83;3.37;;;16.10;99.90;;;;;;5016972;28;20182;-91
2021/05/11 14:37:21;;;;;;;4.40;2.90;;;16.10;99.90;;;;;;5036035;28;20236;-89
2021/05/11 14:39:46;;;;;;;4.60;3.40;;;16.00;99.90;;;;;;5026196;28;20248;-89
2021/05/11 14:42:12;;;;;;;4.13;2.93;;;16.00;99.90;;;;;;5026442;28;20304;-89
2021/05/11 14:44:38;;;;;;;4.03;3.20;;;16.10;99.90;;;;;;5010255;28;20209;-88
2021/05/11 14:47:04;;;;;;;4.33;3.17;;;16.10;99.90;;;;;;5025581;28;20258;-88
2021/05/11 14:49:31;;;;;;;5.07;3.17;;;16.20;99.90;;;;;;4995470;28;20229;-90
2021/05/11 14:51:57;;;;;;;3.10;2.73;;;16.10;99.90;;;;;;5026279;28;20308;-89
2021/05/11 14:54:23;;;;;;;4.37;3.43;;;16.30;99.90;;;;;;5009492;28;20220;-88
2021/05/11 14:56:49;;;;;;;3.73;3.40;;;16.20;99.90;;;;;;5009234;28;20222;-89
2021/05/11 14:59:15;;;;;;;3.20;2.83;;;16.10;99.90;;;;;;5025850;28;20332;-89
2021/05/11 15:01:41;;;;;;;4.20;3.37;;;16.00;99.90;;;;;;5026924;28;20194;-89
2021/05/11 15:04:07;;;;;;;3.93;2.80;;;16.10;99.90;;;;;;5025951;28;20197;-89
2021/05/11 15:06:33;;;;;;;5.03;3.97;;;16.10;99.90;;;;;;5026236;28;20229;-89
2021/05/11 15:09:00;;;;;;;6.03;3.33;;;16.10;99.90;;;;;;5010077;28;20316;-88
2021/05/11 15:11:25;;;;;;;5.77;3.40;;;16.10;99.90;;;;;;5025017;28;20213;-84
2021/05/11 15:13:54;;;;;;;6.27;2.80;;;16.10;99.90;;;;;;5017895;28;20186;-85
2021/05/11 15:16:22;;;;;;;4.77;3.57;;;16.20;99.90;;;;;;5040390;28;20189;-87
2021/05/11 15:18:49;;;;;;;3.10;2.73;;;16.10;99.90;;;;;;5020089;28;20242;-85
2021/05/11 15:21:16;;;;;;;4.43;2.60;;;15.90;99.90;;;;;;5036589;28;20252;-85
2021/05/11 15:23:43;;;;;;;4.53;2.50;;;15.90;99.90;;;;;;5022586;28;21278;-86
2021/05/11 15:26:11;;;;;;;3.77;2.40;;;15.80;99.90;;;;;;5039345;28;20589;-87
2021/05/11 15:28:37;;;;;;;4.80;2.83;;;15.70;99.90;;;;;;5024253;28;20239;-85
2021/05/11 15:31:04;;;;;;;4.27;2.87;;;15.80;99.90;;;;;;5037481;28;20222;-87
2021/05/11 15:33:30;;;;;;;2.77;2.27;;;15.80;99.90;;;;;;5024628;28;20296;-87
2021/05/11 15:35:58;;;;;;;3.87;2.73;;;15.80;99.90;;;;;;5007815;28;20218;-86
2021/05/11 15:38:25;;;;;;;3.23;2.13;;;15.80;99.90;;;;;;4992709;28;20265;-87
2021/05/11 15:40:51;;;;;;;3.60;2.50;;;15.70;99.90;;;;;;5050132;28;20178;-88
2021/05/11 15:43:17;;;;;;;3.73;2.30;;;15.60;99.90;;;;;;5003605;28;20245;-86
2021/05/11 15:45:43;;;;;;;3.67;2.47;;;15.50;99.90;;;;;;5008162;28;20225;-86
2021/05/11 15:48:09;;;;;;;2.63;2.20;;;15.40;99.90;;;;;;5025116;28;20678;-87
2021/05/11 15:50:37;;;;;;;5.37;2.33;;;15.30;99.90;;;;;;5007768;28;20360;-86
2021/05/11 15:53:11;;;;;;;4.17;2.60;;;15.20;99.90;;;;;;5007509;28;20340;-87
2021/05/11 15:55:40;;;;;;;5.00;2.90;;;15.10;99.90;;;;;;5043795;28;20177;-88
2021/05/11 15:58:07;;;;;;;5.53;3.53;;;15.10;99.90;;;;;;5024765;28;20234;-86
2021/05/11 16:00:35;;;;;;;3.43;2.90;;;15.00;99.90;;;;;;5024383;28;20301;-88
2021/05/11 16:03:03;;;;;;;5.50;2.70;;;15.00;99.90;;;;;;5040852;28;20264;-88
2021/05/11 16:05:34;;;;;;;5.07;2.97;;;14.90;99.90;;;;;;4992850;28;20240;-89
2021/05/11 16:08:01;;;;;;;4.67;2.70;;;14.80;99.90;;;;;;5009204;28;20313;-88
2021/05/11 16:10:27;;;;;;;3.53;2.47;;;14.50;99.90;;;;;;5043286;28;20194;-90
2021/05/11 16:12:53;;;;;;;2.43;2.23;;;14.40;99.90;;;;;;5007860;28;20225;-89
2021/05/11 16:15:19;;;;;;;15.00;3.13;;;14.20;99.90;;;;;;4988639;28;20502;-88
2021/05/11 16:17:46;;;;;;;2.27;2.00;;;14.20;99.90;;;;;;4936104;28;20735;-89
2021/05/11 16:20:12;;;;;;;3.80;2.53;;;14.10;99.90;;;;;;4957821;28;20218;-89
2021/05/11 16:22:39;;;;;;;6.10;2.40;;;14.10;99.90;;;;;;5042626;28;20761;-89
2021/05/11 16:25:07;;;;;;;4.13;2.73;;;14.00;99.90;;;;;;4954168;28;20226;-88
2021/05/11 16:27:33;;;;;;;4.37;2.80;;;13.80;99.90;;;;;;5038027;28;20258;-88
2021/05/11 16:29:59;;;;;;;2.50;2.20;;;13.80;99.90;;;;;;5021349;28;20386;-87
2021/05/11 16:32:25;;;;;;;4.20;1.90;;;13.70;99.90;;;;;;5042288;28;20229;-89
2021/05/11 16:34:51;;;;;;;2.33;1.70;;;13.60;99.90;;;;;;5007124;28;20194;-88
2021/05/11 16:37:16;;;;;;;3.40;1.93;;;13.50;99.90;;;;;;5025836;28;20661;-90
2021/05/11 16:39:43;;;;;;;1.43;1.30;;;13.40;99.90;;;;;;5008308;28;20234;-86
2021/05/11 16:42:09;;;;;;;1.20;1.10;;;13.40;99.90;;;;;;5039564;28;20229;-88
2021/05/11 16:44:37;;;;;;;1.13;1.00;;;13.30;99.90;;;;;;5023816;28;20228;-87
2021/05/11 16:47:04;;;;;;;1.10;1.00;;;13.30;99.90;;;;;;4998039;28;20745;-86
2021/05/11 16:49:30;;;;;;;3.60;1.00;;;13.30;99.90;;;;;;4987349;28;20234;-90
2021/05/11 16:51:56;;;;;;;1.20;0.90;;;13.30;99.90;;;;;;5021560;28;20217;-88
2021/05/11 16:54:23;;;;;;;1.27;1.17;;;13.30;99.90;;;;;;5019113;28;20233;-86
2021/05/11 16:56:50;;;;;;;5.03;1.90;;;13.30;99.90;;;;;;5023175;28;20253;-88
2021/05/11 16:59:16;;;;;;;3.87;1.70;;;13.30;99.90;;;;;;4990932;28;20234;-83
2021/05/11 17:01:42;;;;;;;0.97;0.83;;;13.30;99.90;;;;;;5008759;28;20182;-84
2021/05/11 17:04:07;;;;;;;1.60;0.70;;;13.30;99.90;;;;;;4993091;28;20596;-84
2021/05/11 17:06:34;;;;;;;0.80;0.73;;;13.30;99.90;;;;;;5009872;28;20202;-84
2021/05/11 17:09:01;;;;;;;1.13;1.03;;;13.30;99.90;;;;;;5026411;28;20256;-83
2021/05/11 17:11:27;;;;;;;1.33;0.77;;;13.30;99.90;;;;;;5042763;28;20184;-85
2021/05/11 17:13:56;;;;;;;1.40;1.20;;;13.40;99.90;;;;;;5042741;28;20285;-85
2021/05/11 17:16:22;;;;;;;1.23;1.00;;;13.40;99.90;;;;;;5043423;28;20185;-85
2021/05/11 17:18:47;;;;;;;2.00;1.83;;;13.40;99.90;;;;;;5020508;28;20520;-87